createdAt,value
2023-05-05T00:00:00.430Z,9.75
2023-05-05T00:02:27.426Z,11.13
2023-05-05T00:04:54.233Z,10.35
2023-05-05T00:07:20.940Z,12.90
2023-05-05T00:09:47.929Z,12.48
2023-05-05T00:12:14.690Z,11.43
2023-05-05T00:14:41.690Z,11.63
2023-05-05T00:17:08.454Z,10.07
2023-05-05T00:19:35.253Z,15.88
2023-05-05T00:22:02.009Z,10.88
2023-05-05T00:24:28.829Z,10.50
2023-05-05T00:26:55.921Z,10.73
2023-05-05T00:29:22.721Z,13.52
2023-05-05T00:31:52.170Z,10.32
2023-05-05T00:34:19.810Z,10.18
2023-05-05T00:36:46.697Z,15.32
2023-05-05T00:39:14.107Z,11.00
2023-05-05T00:41:40.897Z,11.95
2023-05-05T00:44:07.684Z,12.38
2023-05-05T00:46:35.892Z,13.63
2023-05-05T00:49:03.000Z,11.05
2023-05-05T00:51:29.962Z,13.50
2023-05-05T00:53:56.846Z,16.70
2023-05-05T00:56:27.278Z,11.80
2023-05-05T00:58:54.343Z,10.40
2023-05-05T01:01:21.119Z,10.52
2023-05-05T01:03:48.058Z,10.95
2023-05-05T01:06:25.038Z,13.77
2023-05-05T01:09:27.059Z,11.02
2023-05-05T01:12:20.637Z,12.73
2023-05-05T01:15:00.151Z,15.02
2023-05-05T01:17:38.599Z,14.23
2023-05-05T01:20:28.495Z,12.77
2023-05-05T01:23:04.361Z,13.70
2023-05-05T01:25:49.328Z,13.13
2023-05-05T01:28:31.402Z,12.95
2023-05-05T01:31:04.230Z,16.35
2023-05-05T01:33:36.818Z,13.10
2023-05-05T01:36:11.922Z,15.75
2023-05-05T01:38:42.207Z,12.52
2023-05-05T01:41:19.340Z,13.77
2023-05-05T01:43:50.203Z,13.35
2023-05-05T01:46:19.282Z,12.43
2023-05-05T01:48:48.926Z,14.10
2023-05-05T01:51:17.904Z,13.40
2023-05-05T01:53:47.174Z,13.18
2023-05-05T01:56:15.596Z,12.88
2023-05-05T01:58:45.084Z,14.13
2023-05-05T02:01:13.411Z,12.40
2023-05-05T02:03:41.997Z,12.30
2023-05-05T02:06:10.194Z,14.70
2023-05-05T02:08:39.237Z,13.80
2023-05-05T02:11:08.616Z,12.20
2023-05-05T02:13:36.777Z,13.68
2023-05-05T02:16:05.880Z,12.50
2023-05-05T02:18:35.789Z,13.55
2023-05-05T02:21:03.695Z,12.73
2023-05-05T02:23:30.732Z,12.80
2023-05-05T02:26:09.782Z,14.13
2023-05-05T02:31:13.718Z,11.73
2023-05-05T02:33:44.331Z,14.48
2023-05-05T02:36:21.862Z,11.52
2023-05-05T02:39:02.010Z,10.95
2023-05-05T02:41:34.737Z,10.93
2023-05-05T02:44:06.734Z,10.13
2023-05-05T02:46:35.087Z,9.82
2023-05-05T02:49:01.959Z,9.63
2023-05-05T02:51:28.831Z,7.93
2023-05-05T02:53:59.691Z,9.00
2023-05-05T02:56:32.411Z,7.90
2023-05-05T02:59:09.939Z,10.30
2023-05-05T03:02:00.652Z,7.78
2023-05-05T03:04:34.928Z,8.13
2023-05-05T03:07:09.716Z,7.18
2023-05-05T03:09:39.708Z,7.07
2023-05-05T03:12:21.667Z,9.82
2023-05-05T03:15:02.174Z,7.88
2023-05-05T03:17:31.720Z,8.60
2023-05-05T03:20:01.614Z,7.53
2023-05-05T03:22:30.674Z,7.78
2023-05-05T03:24:57.651Z,8.25
2023-05-05T03:27:24.784Z,6.68
2023-05-05T03:29:51.853Z,13.43
2023-05-05T03:32:19.858Z,7.40
2023-05-05T03:34:46.753Z,6.65
2023-05-05T03:37:13.545Z,5.47
2023-05-05T03:39:42.020Z,7.45
2023-05-05T03:42:10.297Z,6.60
2023-05-05T03:44:37.098Z,8.05
2023-05-05T03:47:04.164Z,6.57
2023-05-05T03:49:33.896Z,7.82
2023-05-05T03:52:00.787Z,6.15
2023-05-05T03:54:27.958Z,6.95
2023-05-05T03:56:56.273Z,6.50
2023-05-05T03:59:23.057Z,7.88
2023-05-05T04:01:50.033Z,5.50
2023-05-05T04:04:17.268Z,7.40
2023-05-05T04:06:44.068Z,8.70
2023-05-05T04:09:12.035Z,9.88
2023-05-05T04:11:38.869Z,8.43
2023-05-05T04:14:05.640Z,12.32
2023-05-05T04:16:33.066Z,10.05
2023-05-05T04:18:59.999Z,7.70
2023-05-05T04:21:27.497Z,9.45
2023-05-05T04:23:54.334Z,9.48
2023-05-05T04:26:22.041Z,6.88
2023-05-05T04:28:49.398Z,7.50
2023-05-05T04:31:17.785Z,8.18
2023-05-05T04:33:45.736Z,9.63
2023-05-05T04:36:13.432Z,9.95
2023-05-05T04:38:41.014Z,7.85
2023-05-05T04:41:07.828Z,8.65
2023-05-05T04:43:36.678Z,10.68
2023-05-05T04:46:03.632Z,9.18
2023-05-05T04:48:34.228Z,8.60
2023-05-05T04:51:07.351Z,8.27
2023-05-05T04:53:34.661Z,8.90
2023-05-05T04:56:02.039Z,8.60
2023-05-05T04:58:29.272Z,8.63
2023-05-05T05:00:56.052Z,9.57
2023-05-05T05:03:23.199Z,10.82
2023-05-05T05:05:50.643Z,10.73
2023-05-05T05:08:18.352Z,8.30
2023-05-05T05:10:45.492Z,16.83
2023-05-05T05:13:13.069Z,9.45
2023-05-05T05:15:40.710Z,9.50
2023-05-05T05:18:07.533Z,9.40
2023-05-05T05:20:34.475Z,9.73
2023-05-05T05:23:04.566Z,11.50
2023-05-05T05:25:33.827Z,14.57
2023-05-05T05:28:09.346Z,12.95
2023-05-05T05:30:42.559Z,11.93
2023-05-05T05:33:10.845Z,11.82
2023-05-05T05:35:37.757Z,14.13
2023-05-05T05:38:04.746Z,12.13
2023-05-05T05:40:31.554Z,13.07
2023-05-05T05:42:58.983Z,13.82
2023-05-05T05:45:26.809Z,12.15
2023-05-05T05:47:53.619Z,14.57
2023-05-05T05:50:20.864Z,12.90
2023-05-05T05:52:47.808Z,14.15
2023-05-05T05:55:15.572Z,13.30
2023-05-05T05:57:42.989Z,13.27
2023-05-05T06:00:11.512Z,15.73
2023-05-05T06:02:44.891Z,15.45
2023-05-05T06:05:15.170Z,12.98
2023-05-05T06:07:42.972Z,13.73
2023-05-05T06:10:25.672Z,16.48
2023-05-05T06:12:58.753Z,15.55
2023-05-05T06:15:26.397Z,12.70
2023-05-05T06:17:53.689Z,16.85
2023-05-05T06:20:21.998Z,13.85
2023-05-05T06:22:48.816Z,12.27
2023-05-05T06:25:15.819Z,14.50
2023-05-05T06:27:42.646Z,12.60
2023-05-05T06:30:10.382Z,10.30
2023-05-05T06:32:37.428Z,10.70
2023-05-05T06:35:04.498Z,11.55
2023-05-05T06:37:31.225Z,11.73
2023-05-05T06:39:57.976Z,12.88
2023-05-05T06:42:24.770Z,10.82
2023-05-05T06:44:52.996Z,10.63
2023-05-05T06:47:19.981Z,10.48
2023-05-05T06:49:46.670Z,17.95
2023-05-05T06:52:13.422Z,56.92
2023-05-05T06:54:40.391Z,15.07
2023-05-05T06:57:07.164Z,14.73
2023-05-05T06:59:33.933Z,10.43
2023-05-05T07:02:00.893Z,10.07
2023-05-05T07:04:28.081Z,12.98
2023-05-05T07:06:55.283Z,12.15
2023-05-05T07:09:22.094Z,12.02
2023-05-05T07:11:48.829Z,12.40
2023-05-05T07:14:15.685Z,9.70
2023-05-05T07:16:42.531Z,10.07
2023-05-05T07:19:09.432Z,8.98
2023-05-05T07:21:36.668Z,11.30
2023-05-05T07:24:03.935Z,9.77
2023-05-05T07:26:30.879Z,12.60
2023-05-05T07:28:58.971Z,10.95
2023-05-05T07:31:26.528Z,9.75
2023-05-05T07:33:53.468Z,8.05
2023-05-05T07:36:20.417Z,11.07
2023-05-05T07:38:47.211Z,7.60
2023-05-05T07:41:14.090Z,10.32
2023-05-05T07:43:44.599Z,6.93
2023-05-05T07:46:12.269Z,8.07
2023-05-05T07:48:41.513Z,8.98
2023-05-05T07:51:09.281Z,7.82
2023-05-05T07:53:36.650Z,9.10
2023-05-05T07:56:04.072Z,6.63
2023-05-05T07:58:30.887Z,9.90
2023-05-05T08:00:57.728Z,6.63
2023-05-05T08:03:25.140Z,12.77
2023-05-05T08:05:54.562Z,8.70
2023-05-05T08:08:24.716Z,8.48
2023-05-05T08:10:53.111Z,5.53
2023-05-05T08:13:20.395Z,7.47
2023-05-05T08:15:47.482Z,6.85
2023-05-05T08:18:14.687Z,7.60
2023-05-05T08:20:41.707Z,5.75
2023-05-05T08:23:08.608Z,6.32
2023-05-05T08:25:35.394Z,5.63
2023-05-05T08:28:02.310Z,5.50
2023-05-05T08:30:29.386Z,5.57
2023-05-05T08:32:56.477Z,5.22
2023-05-05T08:35:24.507Z,5.05
2023-05-05T08:37:51.895Z,5.88
2023-05-05T08:40:22.798Z,4.95
2023-05-05T08:42:49.741Z,5.93
2023-05-05T08:45:16.913Z,5.25
2023-05-05T08:47:44.585Z,5.22
2023-05-05T08:50:12.085Z,3.97
2023-05-05T08:52:45.046Z,5.38
2023-05-05T08:55:17.862Z,6.32
2023-05-05T08:57:51.599Z,3.95
2023-05-05T09:00:19.922Z,4.60
2023-05-05T09:02:47.969Z,2.50
2023-05-05T09:05:15.450Z,4.07
2023-05-05T09:07:43.822Z,5.93
2023-05-05T09:10:11.805Z,6.63
2023-05-05T09:12:42.261Z,3.75
2023-05-05T09:15:10.392Z,4.78
2023-05-05T09:20:12.944Z,5.75
2023-05-05T09:22:42.195Z,3.72
2023-05-05T09:25:11.452Z,3.53
2023-05-05T09:27:48.658Z,5.47
2023-05-05T09:30:18.009Z,4.22
2023-05-05T09:32:47.293Z,3.90
2023-05-05T09:35:14.722Z,4.50
2023-05-05T09:37:41.925Z,3.58
2023-05-05T09:40:09.492Z,3.85
2023-05-05T09:42:37.826Z,6.45
2023-05-05T09:45:25.035Z,5.07
2023-05-05T09:47:54.719Z,3.58
2023-05-05T09:50:25.916Z,4.18
2023-05-05T09:53:01.106Z,4.15
2023-05-05T09:55:28.400Z,4.50
2023-05-05T09:57:55.288Z,4.22
2023-05-05T10:00:22.432Z,4.85
2023-05-05T10:02:49.308Z,4.97
2023-05-05T10:07:47.395Z,6.80
2023-05-05T10:10:16.359Z,6.00
2023-05-05T10:12:44.903Z,6.35
2023-05-05T10:15:12.070Z,6.85
2023-05-05T10:18:02.180Z,6.05
2023-05-05T10:20:36.289Z,5.82
2023-05-05T10:23:07.117Z,8.88
2023-05-05T10:25:41.617Z,6.15
2023-05-05T10:28:16.548Z,7.40
2023-05-05T10:30:46.036Z,5.10
2023-05-05T10:33:31.798Z,3.72
2023-05-05T10:36:02.339Z,2.80
2023-05-05T10:38:31.064Z,2.33
2023-05-05T10:43:27.552Z,2.95
2023-05-05T10:48:27.822Z,4.45
2023-05-05T10:51:05.642Z,5.13
2023-05-05T10:53:41.239Z,5.78
2023-05-05T10:56:11.135Z,3.35
2023-05-05T10:58:55.653Z,3.83
2023-05-05T11:01:33.110Z,1.83
2023-05-05T11:04:19.812Z,3.45
2023-05-05T11:07:09.656Z,6.10
2023-05-05T11:10:07.505Z,6.38
2023-05-05T11:13:02.673Z,7.18
2023-05-05T11:15:29.800Z,4.45
2023-05-05T11:17:57.427Z,4.22
2023-05-05T11:20:43.569Z,5.93
2023-05-05T11:23:10.364Z,4.75
2023-05-05T11:25:37.641Z,5.10
2023-05-05T11:28:11.149Z,2.47
2023-05-05T11:30:59.189Z,6.13
2023-05-05T11:33:30.151Z,6.03
2023-05-05T11:36:07.877Z,4.80
2023-05-05T11:38:46.589Z,5.35
2023-05-05T11:41:34.365Z,4.95
2023-05-05T11:44:20.068Z,5.28
2023-05-05T11:46:52.659Z,5.93
2023-05-05T11:49:33.354Z,5.45
2023-05-05T11:52:07.581Z,5.13
2023-05-05T11:54:47.610Z,5.78
2023-05-05T11:57:17.241Z,5.85
2023-05-05T12:00:10.761Z,5.85
2023-05-05T12:02:37.773Z,6.90
2023-05-05T12:05:05.157Z,7.15
2023-05-05T12:07:33.540Z,4.63
2023-05-05T12:10:01.149Z,8.75
2023-05-05T12:12:39.223Z,5.85
2023-05-05T12:15:07.624Z,5.38
2023-05-05T12:17:43.752Z,9.38
2023-05-05T12:20:12.039Z,5.90
2023-05-05T12:27:35.472Z,5.78
2023-05-05T12:30:16.578Z,5.10
2023-05-05T12:32:44.429Z,4.53
2023-05-05T12:35:12.207Z,3.70
2023-05-05T12:37:39.220Z,5.70
2023-05-05T12:40:07.217Z,6.70
2023-05-05T12:42:39.009Z,3.67
2023-05-05T12:45:07.224Z,3.90
2023-05-05T12:47:35.015Z,4.20
2023-05-05T12:50:03.297Z,6.47
2023-05-05T12:52:42.884Z,4.18
2023-05-05T12:55:10.509Z,4.88
2023-05-05T12:57:37.647Z,6.47
2023-05-05T13:00:15.930Z,5.53
2023-05-05T13:02:42.853Z,7.68
2023-05-05T13:05:10.172Z,10.18
2023-05-05T13:07:49.978Z,5.30
2023-05-05T13:10:16.870Z,5.63
2023-05-05T13:12:43.607Z,7.13
2023-05-05T13:15:11.214Z,5.70
2023-05-05T13:17:37.955Z,9.23
2023-05-05T13:20:06.294Z,9.35
2023-05-05T13:22:33.140Z,5.85
2023-05-05T13:24:59.877Z,7.07
2023-05-05T13:27:27.106Z,7.47
2023-05-05T13:29:53.845Z,5.65
2023-05-05T13:32:20.678Z,7.10
2023-05-05T13:34:47.403Z,5.72
2023-05-05T13:37:14.461Z,6.10
2023-05-05T13:39:41.287Z,6.60
2023-05-05T13:42:08.114Z,7.68
2023-05-05T13:44:35.633Z,6.22
2023-05-05T13:47:02.898Z,4.47
2023-05-05T13:49:29.765Z,5.78
2023-05-05T13:51:56.559Z,5.25
2023-05-05T13:54:23.304Z,7.15
2023-05-05T13:56:50.208Z,7.15
2023-05-05T13:59:17.006Z,4.10
2023-05-05T14:01:43.741Z,5.93
2023-05-05T14:04:10.596Z,4.35
2023-05-05T14:06:37.363Z,3.50
2023-05-05T14:09:06.119Z,3.75
2023-05-05T14:11:33.287Z,5.45
2023-05-05T14:14:00.676Z,5.03
2023-05-05T14:16:27.504Z,4.38
2023-05-05T14:18:54.274Z,5.35
2023-05-05T14:21:21.062Z,2.50
2023-05-05T14:23:47.884Z,2.72
2023-05-05T14:26:14.789Z,2.92
2023-05-05T14:28:42.302Z,2.53
2023-05-05T14:31:09.229Z,3.17
2023-05-05T14:33:36.189Z,3.22
2023-05-05T14:36:03.012Z,3.60
2023-05-05T14:38:29.824Z,4.22
2023-05-05T14:40:56.580Z,3.45
2023-05-05T14:43:23.354Z,4.60
2023-05-05T14:45:50.248Z,4.20
2023-05-05T14:48:17.487Z,3.47
2023-05-05T14:50:46.280Z,4.28
2023-05-05T14:53:13.107Z,4.53
2023-05-05T14:55:39.866Z,1.70
2023-05-05T14:58:06.901Z,2.58
2023-05-05T15:00:33.814Z,3.25
2023-05-05T15:03:00.881Z,3.55
2023-05-05T15:05:27.682Z,2.85
2023-05-05T15:07:54.474Z,2.92
2023-05-05T15:10:22.119Z,5.03
2023-05-05T15:12:49.219Z,2.50
2023-05-05T15:15:16.052Z,3.22
2023-05-05T15:17:43.140Z,2.17
2023-05-05T15:20:10.428Z,3.40
2023-05-05T15:22:37.234Z,2.55
2023-05-05T15:25:04.356Z,2.28
2023-05-05T15:27:31.869Z,2.25
2023-05-05T15:29:58.729Z,2.13
2023-05-05T15:32:25.608Z,2.22
2023-05-05T15:34:52.569Z,3.28
2023-05-05T15:37:19.344Z,2.40
2023-05-05T15:39:46.170Z,5.13
2023-05-05T15:42:12.900Z,3.33
2023-05-05T15:44:39.686Z,2.65
2023-05-05T15:47:07.439Z,2.00
2023-05-05T15:49:34.321Z,1.98
2023-05-05T15:52:01.201Z,2.30
2023-05-05T15:54:28.047Z,3.05
2023-05-05T15:56:54.985Z,2.40
2023-05-05T15:59:21.719Z,3.42
2023-05-05T16:01:48.940Z,4.20
2023-05-05T16:04:15.869Z,2.13
2023-05-05T16:06:42.724Z,1.42
2023-05-05T16:09:09.837Z,2.15
2023-05-05T16:11:37.443Z,2.53
2023-05-05T16:14:04.478Z,3.15
2023-05-05T16:16:31.386Z,1.85
2023-05-05T16:18:58.241Z,2.33
2023-05-05T16:21:25.592Z,1.63
2023-05-05T16:23:52.383Z,2.88
2023-05-05T16:26:19.491Z,1.52
2023-05-05T16:28:46.278Z,2.88
2023-05-05T16:31:13.531Z,1.98
2023-05-05T16:33:41.290Z,3.22
2023-05-05T16:36:10.218Z,2.10
2023-05-05T16:38:37.164Z,2.97
2023-05-05T16:41:03.998Z,4.45
2023-05-05T16:43:30.922Z,2.75
2023-05-05T16:45:57.712Z,1.73
2023-05-05T16:48:24.635Z,2.97
2023-05-05T16:50:51.426Z,1.90
2023-05-05T16:53:18.223Z,2.40
2023-05-05T16:55:45.214Z,2.20
2023-05-05T16:58:12.313Z,3.13
2023-05-05T17:00:39.276Z,1.00
2023-05-05T17:03:06.317Z,2.08
2023-05-05T17:05:33.207Z,2.10
2023-05-05T17:08:00.009Z,2.92
2023-05-05T17:10:27.071Z,2.65
2023-05-05T17:12:54.018Z,1.98
2023-05-05T17:15:21.572Z,2.90
2023-05-05T17:17:48.499Z,2.35
2023-05-05T17:20:15.560Z,3.65
2023-05-05T17:22:42.329Z,1.77
2023-05-05T17:25:10.022Z,2.08
2023-05-05T17:27:37.118Z,1.98
2023-05-05T17:30:04.318Z,1.85
2023-05-05T17:32:31.233Z,2.20
2023-05-05T17:34:57.967Z,3.58
2023-05-05T17:37:24.824Z,1.63
2023-05-05T17:39:51.608Z,3.25
2023-05-05T17:42:22.698Z,2.85
2023-05-05T17:44:50.122Z,2.35
2023-05-05T17:47:22.066Z,2.63
2023-05-05T17:49:49.624Z,2.90
2023-05-05T17:52:16.593Z,1.83
2023-05-05T17:54:43.300Z,1.88
2023-05-05T17:57:10.163Z,2.55
2023-05-05T17:59:37.000Z,1.40
2023-05-05T18:02:04.130Z,2.65
2023-05-05T18:04:30.947Z,2.47
2023-05-05T18:06:57.720Z,2.05
2023-05-05T18:09:24.539Z,2.17
2023-05-05T18:11:55.081Z,1.90
2023-05-05T18:14:23.727Z,1.38
2023-05-05T18:16:53.807Z,2.15
2023-05-05T18:19:22.075Z,3.00
2023-05-05T18:21:51.792Z,2.72
2023-05-05T18:24:20.372Z,2.20
2023-05-05T18:26:51.985Z,3.60
2023-05-05T18:29:19.794Z,3.03
2023-05-05T18:31:51.650Z,2.35
2023-05-05T18:34:21.897Z,1.83
2023-05-05T18:36:50.788Z,2.22
2023-05-05T18:39:17.894Z,2.35
2023-05-05T18:41:44.962Z,3.70
2023-05-05T18:44:11.904Z,4.00
2023-05-05T18:46:38.878Z,4.50
2023-05-05T18:49:05.801Z,2.80
2023-05-05T18:51:32.656Z,3.05
2023-05-05T18:54:00.824Z,2.28
2023-05-05T18:56:27.733Z,2.90
2023-05-05T18:58:54.580Z,3.90
2023-05-05T19:01:21.352Z,3.35
2023-05-05T19:03:48.329Z,3.78
2023-05-05T19:06:15.932Z,2.88
2023-05-05T19:08:44.196Z,3.42
2023-05-05T19:11:11.094Z,3.60
2023-05-05T19:13:39.845Z,3.20
2023-05-05T19:16:07.317Z,2.38
2023-05-05T19:18:34.167Z,4.38
2023-05-05T19:21:01.392Z,7.70
2023-05-05T19:23:28.217Z,4.63
2023-05-05T19:25:54.979Z,6.22
2023-05-05T19:28:21.856Z,3.85
2023-05-05T19:30:48.803Z,5.82
2023-05-05T19:33:16.425Z,4.57
2023-05-05T19:35:43.654Z,4.43
2023-05-05T19:38:10.936Z,4.65
2023-05-05T19:40:38.944Z,4.05
2023-05-05T19:43:05.966Z,4.00
2023-05-05T19:45:33.771Z,4.28
2023-05-05T19:48:01.582Z,5.18
2023-05-05T19:50:30.297Z,4.88
2023-05-05T19:52:57.719Z,4.50
2023-05-05T19:55:24.819Z,4.28
2023-05-05T19:57:51.713Z,4.55
2023-05-05T20:00:19.650Z,5.20
2023-05-05T20:02:47.378Z,4.78
2023-05-05T20:05:16.336Z,4.22
2023-05-05T20:07:44.261Z,5.78
2023-05-05T20:10:13.335Z,5.60
2023-05-05T20:12:47.522Z,4.82
2023-05-05T20:15:20.753Z,5.85
2023-05-05T20:17:48.403Z,4.40
2023-05-05T20:20:17.372Z,7.53
2023-05-05T20:22:45.488Z,8.05
2023-05-05T20:25:12.747Z,4.93
2023-05-05T20:27:39.625Z,3.85
2023-05-05T20:30:08.925Z,6.80
2023-05-05T20:32:36.847Z,5.90
2023-05-05T20:35:05.554Z,6.35
2023-05-05T20:37:32.430Z,5.53
2023-05-05T20:39:59.190Z,5.85
2023-05-05T20:42:27.607Z,4.90
2023-05-05T20:47:21.102Z,5.95
2023-05-05T20:49:47.864Z,5.53
2023-05-05T20:52:14.846Z,5.63
2023-05-05T20:54:41.684Z,6.53
2023-05-05T20:57:08.629Z,10.93
2023-05-05T20:59:35.443Z,4.70
2023-05-05T21:02:02.302Z,6.13
2023-05-05T21:04:29.130Z,6.20
2023-05-05T21:06:57.290Z,7.03
2023-05-05T21:09:24.280Z,5.22
2023-05-05T21:11:51.081Z,6.55
2023-05-05T21:14:17.944Z,6.00
2023-05-05T21:16:44.745Z,8.55
2023-05-05T21:19:11.604Z,6.47
2023-05-05T21:21:38.338Z,6.13
2023-05-05T21:24:07.729Z,7.88
2023-05-05T21:26:34.853Z,6.88
2023-05-05T21:29:01.601Z,5.88
2023-05-05T21:31:28.545Z,10.98
2023-05-05T21:33:55.378Z,6.63
2023-05-05T21:36:22.198Z,6.18
2023-05-05T21:38:49.728Z,6.50
2023-05-05T21:41:16.805Z,7.13
2023-05-05T21:43:43.629Z,6.53
2023-05-05T21:46:10.620Z,7.90
2023-05-05T21:48:39.046Z,7.10
2023-05-05T21:53:33.534Z,7.78
2023-05-05T21:56:00.373Z,8.55
2023-05-05T21:58:27.185Z,7.57
2023-05-05T22:00:54.136Z,7.00
2023-05-05T22:03:21.302Z,8.73
2023-05-05T22:05:48.150Z,6.25
2023-05-05T22:08:15.036Z,7.18
2023-05-05T22:10:41.866Z,5.35
2023-05-05T22:13:10.417Z,7.95
2023-05-05T22:15:45.900Z,7.82
2023-05-05T22:18:14.073Z,6.43
2023-05-05T22:20:41.086Z,7.53
2023-05-05T22:23:07.965Z,8.23
2023-05-05T22:25:35.102Z,7.45
2023-05-05T22:28:02.223Z,6.68
2023-05-05T22:30:28.946Z,8.63
2023-05-05T22:32:55.812Z,7.22
2023-05-05T22:35:22.812Z,8.70
2023-05-05T22:37:49.685Z,7.68
2023-05-05T22:40:16.504Z,8.77
2023-05-05T22:42:43.292Z,8.02
2023-05-05T22:45:10.731Z,9.27
2023-05-05T22:47:37.762Z,7.38
2023-05-05T22:50:04.875Z,9.02
2023-05-05T22:52:31.876Z,8.05
2023-05-05T22:54:58.675Z,8.23
2023-05-05T22:57:25.461Z,10.48
2023-05-05T22:59:52.442Z,10.68
2023-05-05T23:02:19.264Z,9.45
2023-05-05T23:04:46.249Z,10.63
2023-05-05T23:07:13.504Z,11.02
2023-05-05T23:09:40.860Z,8.95
2023-05-05T23:12:07.741Z,10.60
2023-05-05T23:14:35.979Z,9.60
2023-05-05T23:17:02.792Z,8.07
2023-05-05T23:19:32.126Z,10.00
2023-05-05T23:21:59.656Z,9.45
2023-05-05T23:24:27.687Z,10.10
2023-05-05T23:26:56.640Z,10.02
2023-05-05T23:29:23.422Z,9.07
2023-05-05T23:31:50.247Z,9.70
2023-05-05T23:34:17.188Z,8.88
2023-05-05T23:36:43.983Z,9.15
2023-05-05T23:39:11.054Z,10.55
2023-05-05T23:41:37.808Z,9.43
2023-05-05T23:44:04.613Z,10.10
2023-05-05T23:46:31.462Z,9.23
2023-05-05T23:48:58.219Z,12.88
2023-05-05T23:51:27.076Z,8.93
2023-05-05T23:53:56.172Z,10.70
2023-05-05T23:56:23.742Z,11.50
2023-05-05T23:58:50.842Z,9.13
